Time;durP1;ratioP1;P1;durP2;ratioP2;P2;SDS_P1;SDS_P2;PMS_P1;PMS_P2;Temp;Humidity;BMP_temperature;BMP_pressure;BME280_temperature;BME280_humidity;BME280_pressure;Samples;Min_cycle;Max_cycle;Signal;HPM_P1;HPM_P2
2023/06/01 00:00:50;;;;;;;;;;;;;;;;;;137524;1272;22550;-79
2023/06/01 00:04:13;;;;;;;;;;;;;;;;;;137620;1272;22505;-80
2023/06/01 00:07:15;;;;;;;;;;;;;;;;;;137628;1272;22307;-79
2023/06/01 00:10:18;;;;;;;;;;;;;;;;;;137534;1272;22978;-79
2023/06/01 00:13:20;;;;;;;;;;;;;;;;;;137581;1272;22384;-78
2023/06/01 00:16:23;;;;;;;;;;;;;;;;;;137586;1272;23078;-79
2023/06/01 00:19:26;;;;;;;;;;;;;;;;;;137608;1272;22324;-79
2023/06/01 00:22:34;;;;;;;;;;;;;;;;;;137547;1272;22628;-78
2023/06/01 00:25:36;;;;;;;;;;;;;;;;;;137607;1272;22926;-79
2023/06/01 00:28:39;;;;;;;;;;;;;;;;;;137626;1272;22388;-78
2023/06/01 00:31:41;;;;;;;;;;;;;;;;;;137652;1272;22366;-79
2023/06/01 00:34:43;;;;;;;;;;;;;;;;;;137468;1272;22563;-78
2023/06/01 00:37:46;;;;;;;;;;;;;;;;;;137610;1272;22529;-79
2023/06/01 00:40:50;;;;;;;;;;;;;;;;;;137597;1272;22482;-80
2023/06/01 00:43:54;;;;;;;;;;;;;;;;;;137613;1272;22532;-78
2023/06/01 00:46:59;;;;;;;;;;;;;;;;;;137499;1272;22562;-79
2023/06/01 00:50:03;;;;;;;;;;;;;;;;;;137691;1272;22405;-78
2023/06/01 00:53:06;;;;;;;;;;;;;;;;;;137522;1272;22498;-78
2023/06/01 00:56:08;;;;;;;;;;;;;;;;;;137444;1272;22586;-77
2023/06/01 00:59:11;;;;;;;;;;;;;;;;;;137555;1272;22483;-78
2023/06/01 01:02:15;;;;;;;;;;;;;;;;;;137672;1272;22278;-77
2023/06/01 01:05:19;;;;;;;;;;;;;;;;;;137573;1272;22476;-77
2023/06/01 01:08:21;;;;;;;;;;;;;;;;;;137658;1272;22493;-77
2023/06/01 01:11:27;;;;;;;;;;;;;;;;;;137675;1272;22364;-77
2023/06/01 01:14:29;;;;;;;;;;;;;;;;;;137654;1272;22701;-77
2023/06/01 01:17:32;;;;;;;;;;;;;;;;;;137521;1272;22529;-77
2023/06/01 01:20:34;;;;;;;;;;;;;;;;;;137542;1272;22529;-77
2023/06/01 01:23:37;;;;;;;;;;;;;;;;;;137616;1272;22555;-77
2023/06/01 01:26:42;;;;;;;;;;;;;;;;;;137311;1272;22515;-77
2023/06/01 01:29:44;;;;;;;;;;;;;;;;;;137408;1272;22964;-77
2023/06/01 01:32:47;;;;;;;;;;;;;;;;;;137666;1272;22281;-80
2023/06/01 01:35:49;;;;;;;;;;;;;;;;;;137625;1272;22507;-80
2023/06/01 01:38:51;;;;;;;;;;;;;;;;;;137570;1272;22529;-80
2023/06/01 01:41:54;;;;;;;;;;;;;;;;;;137601;1272;22497;-79
2023/06/01 01:44:56;;;;;;;;;;;;;;;;;;137588;1272;22559;-79
2023/06/01 01:47:59;;;;;;;;;;;;;;;;;;137717;1272;22249;-79
2023/06/01 01:51:01;;;;;;;;;;;;;;;;;;137718;1272;22369;-79
2023/06/01 01:54:04;;;;;;;;;;;;;;;;;;137739;1272;22299;-80
2023/06/01 01:57:06;;;;;;;;;;;;;;;;;;137717;1272;22594;-80
2023/06/01 02:00:09;;;;;;;;;;;;;;;;;;137761;1272;22268;-81
2023/06/01 02:03:11;;;;;;;;;;;;;;;;;;137717;1272;22242;-78
2023/06/01 02:06:14;;;;;;;;;;;;;;;;;;137714;1272;22301;-78
2023/06/01 02:09:17;;;;;;;;;;;;;;;;;;137682;1272;22821;-78
2023/06/01 02:12:20;;;;;;;;;;;;;;;;;;137689;1272;22738;-79
2023/06/01 02:15:22;;;;;;;;;;;;;;;;;;137713;1272;22301;-80
2023/06/01 02:18:25;;;;;;;;;;;;;;;;;;137737;1272;22257;-82
2023/06/01 02:21:27;;;;;;;;;;;;;;;;;;137732;1268;22359;-79
2023/06/01 02:24:30;;;;;;;;;;;;;;;;;;137746;1272;22266;-81
2023/06/01 02:27:32;;;;;;;;;;;;;;;;;;137712;1272;22216;-80
2023/06/01 02:30:35;;;;;;;;;;;;;;;;;;137698;1272;22691;-80
2023/06/01 02:33:37;;;;;;;;;;;;;;;;;;137733;1270;22241;-79
2023/06/01 02:36:40;;;;;;;;;;;;;;;;;;137699;1272;22660;-80
2023/06/01 02:39:43;;;;;;;;;;;;;;;;;;137702;1272;22286;-81
2023/06/01 02:42:47;;;;;;;;;;;;;;;;;;137719;1272;22189;-81
2023/06/01 02:45:50;;;;;;;;;;;;;;;;;;137701;1272;22173;-80
2023/06/01 02:48:52;;;;;;;;;;;;;;;;;;137724;1272;22270;-80
2023/06/01 02:51:55;;;;;;;;;;;;;;;;;;137709;1272;22380;-83
2023/06/01 02:54:57;;;;;;;;;;;;;;;;;;137735;1272;22169;-83
2023/06/01 02:58:00;;;;;;;;;;;;;;;;;;137725;1272;22295;-78
2023/06/01 03:01:02;;;;;;;;;;;;;;;;;;137730;1272;22193;-80
2023/06/01 03:04:05;;;;;;;;;;;;;;;;;;137674;1272;22364;-78
2023/06/01 03:07:10;;;;;;;;;;;;;;;;;;137675;1272;22255;-78
2023/06/01 03:10:13;;;;;;;;;;;;;;;;;;137706;1272;22322;-78
2023/06/01 03:13:15;;;;;;;;;;;;;;;;;;137718;1272;22251;-78
2023/06/01 03:16:18;;;;;;;;;;;;;;;;;;137735;1272;22567;-79
2023/06/01 03:19:20;;;;;;;;;;;;;;;;;;137705;1272;22276;-79
2023/06/01 03:22:22;;;;;;;;;;;;;;;;;;137711;1272;22334;-79
2023/06/01 03:25:25;;;;;;;;;;;;;;;;;;137734;1272;22172;-81
2023/06/01 03:28:28;;;;;;;;;;;;;;;;;;137726;1265;22203;-81
2023/06/01 03:31:30;;;;;;;;;;;;;;;;;;137724;1272;22266;-81
2023/06/01 03:34:36;;;;;;;;;;;;;;;;;;137718;1272;22317;-81
2023/06/01 03:37:38;;;;;;;;;;;;;;;;;;137722;1272;22263;-81
2023/06/01 03:40:41;;;;;;;;;;;;;;;;;;137685;1272;22300;-81
2023/06/01 03:43:43;;;;;;;;;;;;;;;;;;137655;1272;22249;-80
2023/06/01 03:46:46;;;;;;;;;;;;;;;;;;137652;1272;22323;-82
2023/06/01 03:49:50;;;;;;;;;;;;;;;;;;137666;1272;22259;-79
2023/06/01 03:52:52;;;;;;;;;;;;;;;;;;137668;1272;22435;-79
2023/06/01 03:55:56;;;;;;;;;;;;;;;;;;137684;1272;22266;-78
2023/06/01 03:58:58;;;;;;;;;;;;;;;;;;137645;1272;22276;-79
2023/06/01 04:02:02;;;;;;;;;;;;;;;;;;137665;1272;22309;-79
2023/06/01 04:05:07;;;;;;;;;;;;;;;;;;137711;1272;22325;-79
2023/06/01 04:08:10;;;;;;;;;;;;;;;;;;137648;1272;22569;-80
2023/06/01 04:11:13;;;;;;;;;;;;;;;;;;137670;1272;22346;-81
2023/06/01 04:14:15;;;;;;;;;;;;;;;;;;137625;1268;22193;-78
2023/06/01 04:17:17;;;;;;;;;;;;;;;;;;137622;1272;22570;-78
2023/06/01 04:20:20;;;;;;;;;;;;;;;;;;137579;1272;22383;-79
2023/06/01 04:23:22;;;;;;;;;;;;;;;;;;137622;1272;22713;-79
2023/06/01 04:26:27;;;;;;;;;;;;;;;;;;137647;1272;22163;-79
2023/06/01 04:29:29;;;;;;;;;;;;;;;;;;137653;1272;22203;-79
2023/06/01 04:32:32;;;;;;;;;;;;;;;;;;137655;1272;22675;-80
2023/06/01 04:35:36;;;;;;;;;;;;;;;;;;137648;1272;22199;-78
2023/06/01 04:38:41;;;;;;;;;;;;;;;;;;137611;1272;22652;-81
2023/06/01 04:41:44;;;;;;;;;;;;;;;;;;137629;1272;22362;-80
2023/06/01 04:44:49;;;;;;;;;;;;;;;;;;137640;1271;22660;-79
2023/06/01 04:47:57;;;;;;;;;;;;;;;;;;137608;1272;22207;-79
2023/06/01 04:50:59;;;;;;;;;;;;;;;;;;137630;1272;22445;-82
2023/06/01 04:54:02;;;;;;;;;;;;;;;;;;137638;1272;23017;-79
2023/06/01 04:57:06;;;;;;;;;;;;;;;;;;137636;1272;22261;-79
2023/06/01 05:00:11;;;;;;;;;;;;;;;;;;137671;1272;22179;-79
2023/06/01 05:03:13;;;;;;;;;;;;;;;;;;137728;1272;22256;-79
2023/06/01 05:06:16;;;;;;;;;;;;;;;;;;137684;1265;22214;-78
2023/06/01 05:09:19;;;;;;;;;;;;;;;;;;137660;1272;22289;-78
2023/06/01 05:12:21;;;;;;;;;;;;;;;;;;137674;1272;22295;-79
2023/06/01 05:15:24;;;;;;;;;;;;;;;;;;137687;1272;22214;-79
2023/06/01 05:18:27;;;;;;;;;;;;;;;;;;137682;1272;22280;-80
2023/06/01 05:21:31;;;;;;;;;;;;;;;;;;137689;1272;22351;-79
2023/06/01 05:24:34;;;;;;;;;;;;;;;;;;137664;1272;22748;-80
2023/06/01 05:27:36;;;;;;;;;;;;;;;;;;137665;1272;22169;-79
2023/06/01 05:30:39;;;;;;;;;;;;;;;;;;137625;1272;22266;-80
2023/06/01 05:33:42;;;;;;;;;;;;;;;;;;137578;1272;22836;-79
2023/06/01 05:36:44;;;;;;;;;;;;;;;;;;137642;1272;22288;-79
2023/06/01 05:39:46;;;;;;;;;;;;;;;;;;137645;1272;22162;-80
2023/06/01 05:42:49;;;;;;;;;;;;;;;;;;137647;1265;22301;-79
2023/06/01 05:45:51;;;;;;;;;;;;;;;;;;137654;1272;22177;-79
2023/06/01 05:48:55;;;;;;;;;;;;;;;;;;137686;1272;22178;-81
2023/06/01 05:51:58;;;;;;;;;;;;;;;;;;137651;1272;22403;-82
2023/06/01 05:55:00;;;;;;;;;;;;;;;;;;137639;1272;22163;-81
2023/06/01 05:58:02;;;;;;;;;;;;;;;;;;137678;1272;22628;-80
2023/06/01 06:01:05;;;;;;;;;;;;;;;;;;137599;1272;22262;-81
2023/06/01 06:04:10;;;;;;;;;;;;;;;;;;137670;1272;22249;-81
2023/06/01 06:07:13;;;;;;;;;;;;;;;;;;137648;1268;22197;-81
2023/06/01 06:10:15;;;;;;;;;;;;;;;;;;137606;1272;22734;-80
2023/06/01 06:13:18;;;;;;;;;;;;;;;;;;137653;1272;22667;-81
2023/06/01 06:16:20;;;;;;;;;;;;;;;;;;137590;1272;22340;-82
2023/06/01 06:19:23;;;;;;;;;;;;;;;;;;137675;1272;22866;-81
2023/06/01 06:22:25;;;;;;;;;;;;;;;;;;137672;1272;22403;-81
2023/06/01 06:25:28;;;;;;;;;;;;;;;;;;137617;1272;22248;-82
2023/06/01 06:28:33;;;;;;;;;;;;;;;;;;137670;1272;22265;-83
2023/06/01 06:31:35;;;;;;;;;;;;;;;;;;137586;1272;22180;-81
2023/06/01 06:34:38;;;;;;;;;;;;;;;;;;137606;1272;22258;-80
2023/06/01 06:37:43;;;;;;;;;;;;;;;;;;137585;1272;23101;-80
2023/06/01 06:40:46;;;;;;;;;;;;;;;;;;137610;1272;22278;-80
2023/06/01 06:43:48;;;;;;;;;;;;;;;;;;137587;1272;22855;-81
2023/06/01 06:46:51;;;;;;;;;;;;;;;;;;137557;1272;23081;-81
2023/06/01 06:49:54;;;;;;;;;;;;;;;;;;137551;1272;22208;-82
2023/06/01 06:52:56;;;;;;;;;;;;;;;;;;137585;1272;22424;-82
2023/06/01 06:55:59;;;;;;;;;;;;;;;;;;137604;1272;22170;-81
2023/06/01 06:59:01;;;;;;;;;;;;;;;;;;137597;1272;23233;-82
2023/06/01 07:02:04;;;;;;;;;;;;;;;;;;137616;1268;22211;-81
2023/06/01 07:05:08;;;;;;;;;;;;;;;;;;137610;1272;22255;-81
2023/06/01 07:08:10;;;;;;;;;;;;;;;;;;137618;1265;22205;-83
2023/06/01 07:11:13;;;;;;;;;;;;;;;;;;137595;1272;22275;-82
2023/06/01 07:14:15;;;;;;;;;;;;;;;;;;137700;1272;22208;-84
2023/06/01 07:17:18;;;;;;;;;;;;;;;;;;137625;1272;22180;-82
2023/06/01 07:20:20;;;;;;;;;;;;;;;;;;137667;1268;23395;-84
2023/06/01 07:23:23;;;;;;;;;;;;;;;;;;137689;1272;22277;-80
2023/06/01 07:26:29;;;;;;;;;;;;;;;;;;137644;1268;22690;-82
2023/06/01 07:29:32;;;;;;;;;;;;;;;;;;137653;1257;22397;-81
2023/06/01 07:32:34;;;;;;;;;;;;;;;;;;137580;1272;22469;-80
2023/06/01 07:35:37;;;;;;;;;;;;;;;;;;137677;1272;22292;-87
2023/06/01 07:38:45;;;;;;;;;;;;;;;;;;137623;1272;22182;-82
2023/06/01 07:41:53;;;;;;;;;;;;;;;;;;137632;1272;22261;-82
2023/06/01 07:44:55;;;;;;;;;;;;;;;;;;137661;1272;22252;-82
2023/06/01 07:47:58;;;;;;;;;;;;;;;;;;137611;1272;22268;-82
2023/06/01 07:51:01;;;;;;;;;;;;;;;;;;137624;1272;22433;-82
2023/06/01 07:54:04;;;;;;;;;;;;;;;;;;137691;1272;22270;-82
2023/06/01 07:57:06;;;;;;;;;;;;;;;;;;137694;1272;22258;-82
2023/06/01 08:00:11;;;;;;;;;;;;;;;;;;137727;1272;22376;-82
2023/06/01 08:03:14;;;;;;;;;;;;;;;;;;137647;1272;22311;-82
2023/06/01 08:06:18;;;;;;;;;;;;;;;;;;137672;1272;22251;-83
2023/06/01 08:09:21;;;;;;;;;;;;;;;;;;137595;1272;22786;-84
2023/06/01 08:12:24;;;;;;;;;;;;;;;;;;137685;1271;22218;-82
2023/06/01 08:15:28;;;;;;;;;;;;;;;;;;137634;1272;22220;-81
2023/06/01 08:18:31;;;;;;;;;;;;;;;;;;137628;1272;22316;-81
2023/06/01 08:21:33;;;;;;;;;;;;;;;;;;137660;1272;22374;-82
2023/06/01 08:24:36;;;;;;;;;;;;;;;;;;137629;1272;22234;-83
2023/06/01 08:27:42;;;;;;;;;;;;;;;;;;137692;1272;22768;-83
2023/06/01 08:30:46;;;;;;;;;;;;;;;;;;137558;1272;22419;-82
2023/06/01 08:33:49;;;;;;;;;;;;;;;;;;137638;1272;22699;-83
2023/06/01 08:36:51;;;;;;;;;;;;;;;;;;137668;1272;22661;-82
2023/06/01 08:39:54;;;;;;;;;;;;;;;;;;137538;1258;22383;-83
2023/06/01 08:42:57;;;;;;;;;;;;;;;;;;137664;1272;22174;-82
2023/06/01 08:46:00;;;;;;;;;;;;;;;;;;137665;1272;22264;-83
2023/06/01 08:49:05;;;;;;;;;;;;;;;;;;137610;1272;22192;-83
2023/06/01 08:52:09;;;;;;;;;;;;;;;;;;137623;1272;22410;-82
2023/06/01 08:55:12;;;;;;;;;;;;;;;;;;137619;1272;22207;-83
2023/06/01 08:58:15;;;;;;;;;;;;;;;;;;137616;1272;22265;-83
2023/06/01 09:01:18;;;;;;;;;;;;;;;;;;137675;1272;22269;-83
2023/06/01 09:04:20;;;;;;;;;;;;;;;;;;137465;1272;22422;-83
2023/06/01 09:07:23;;;;;;;;;;;;;;;;;;137576;1272;22273;-81
2023/06/01 09:10:26;;;;;;;;;;;;;;;;;;137570;1257;22182;-82
2023/06/01 09:13:28;;;;;;;;;;;;;;;;;;137610;1272;22265;-81
2023/06/01 09:16:31;;;;;;;;;;;;;;;;;;137596;1272;22190;-81
2023/06/01 09:19:33;;;;;;;;;;;;;;;;;;137582;1272;22404;-81
2023/06/01 09:22:36;;;;;;;;;;;;;;;;;;137585;1272;22367;-81
2023/06/01 09:25:38;;;;;;;;;;;;;;;;;;137459;1272;22264;-81
2023/06/01 09:28:41;;;;;;;;;;;;;;;;;;137582;1272;22161;-81
2023/06/01 09:31:44;;;;;;;;;;;;;;;;;;137617;1272;22666;-82
2023/06/01 09:34:47;;;;;;;;;;;;;;;;;;137608;1272;22388;-82
2023/06/01 09:37:50;;;;;;;;;;;;;;;;;;137655;1268;22218;-81
2023/06/01 09:40:53;;;;;;;;;;;;;;;;;;137650;1272;22247;-83
2023/06/01 09:43:55;;;;;;;;;;;;;;;;;;137614;1272;22567;-83
2023/06/01 09:46:58;;;;;;;;;;;;;;;;;;137610;1268;22167;-82
2023/06/01 09:50:03;;;;;;;;;;;;;;;;;;137656;1272;22193;-83
2023/06/01 09:53:05;;;;;;;;;;;;;;;;;;137628;1272;22361;-83
2023/06/01 09:56:08;;;;;;;;;;;;;;;;;;137648;1260;22171;-83
2023/06/01 09:59:11;;;;;;;;;;;;;;;;;;137640;1272;22868;-83
2023/06/01 10:02:13;;;;;;;;;;;;;;;;;;137641;1272;22939;-83
2023/06/01 10:05:16;;;;;;;;;;;;;;;;;;137425;1272;228456;-81
2023/06/01 10:08:18;;;;;;;;;;;;;;;;;;137588;1272;22964;-81
2023/06/01 10:11:21;;;;;;;;;;;;;;;;;;137582;1272;22651;-81
2023/06/01 10:14:24;;;;;;;;;;;;;;;;;;137595;1272;22259;-82
2023/06/01 10:17:26;;;;;;;;;;;;;;;;;;137591;1272;22808;-82
2023/06/01 10:20:29;;;;;;;;;;;;;;;;;;137612;1272;22814;-81
2023/06/01 10:23:31;;;;;;;;;;;;;;;;;;137578;1272;22261;-81
2023/06/01 10:26:34;;;;;;;;;;;;;;;;;;137613;1272;23032;-83
2023/06/01 10:29:37;;;;;;;;;;;;;;;;;;137640;1262;22186;-81
2023/06/01 10:32:39;;;;;;;;;;;;;;;;;;137672;1272;22267;-83
2023/06/01 10:35:41;;;;;;;;;;;;;;;;;;137594;1272;22602;-81
2023/06/01 10:38:44;;;;;;;;;;;;;;;;;;137661;1272;22325;-81
2023/06/01 10:41:46;;;;;;;;;;;;;;;;;;137611;1272;22631;-80
2023/06/01 10:44:49;;;;;;;;;;;;;;;;;;137649;1272;22572;-81
2023/06/01 10:47:52;;;;;;;;;;;;;;;;;;137639;1272;22274;-80
2023/06/01 10:50:54;;;;;;;;;;;;;;;;;;137677;1272;22434;-81
2023/06/01 10:53:57;;;;;;;;;;;;;;;;;;137680;1272;22320;-85
2023/06/01 10:57:01;;;;;;;;;;;;;;;;;;137672;1272;22286;-81
2023/06/01 11:00:04;;;;;;;;;;;;;;;;;;137712;1272;22216;-82
2023/06/01 11:03:06;;;;;;;;;;;;;;;;;;137639;1268;22677;-81
2023/06/01 11:06:09;;;;;;;;;;;;;;;;;;137608;1272;22243;-81
2023/06/01 11:09:11;;;;;;;;;;;;;;;;;;137635;1272;22549;-82
2023/06/01 11:12:14;;;;;;;;;;;;;;;;;;137596;1266;22252;-84
2023/06/01 11:15:18;;;;;;;;;;;;;;;;;;137629;1272;22285;-84
2023/06/01 11:18:20;;;;;;;;;;;;;;;;;;137602;1272;22494;-82
2023/06/01 11:21:23;;;;;;;;;;;;;;;;;;137609;1272;22439;-82
2023/06/01 11:24:26;;;;;;;;;;;;;;;;;;137623;1272;22234;-84
2023/06/01 11:27:29;;;;;;;;;;;;;;;;;;137606;1272;22139;-84
2023/06/01 11:30:31;;;;;;;;;;;;;;;;;;137586;1272;22715;-84
2023/06/01 11:33:34;;;;;;;;;;;;;;;;;;137582;1272;22211;-82
2023/06/01 11:36:36;;;;;;;;;;;;;;;;;;137623;1272;22318;-83
2023/06/01 11:39:40;;;;;;;;;;;;;;;;;;137605;1272;22352;-83
2023/06/01 11:42:42;;;;;;;;;;;;;;;;;;137590;1272;22628;-81
2023/06/01 11:45:45;;;;;;;;;;;;;;;;;;137634;1272;22245;-82
2023/06/01 11:48:48;;;;;;;;;;;;;;;;;;137623;1272;22308;-83
2023/06/01 11:51:52;;;;;;;;;;;;;;;;;;137622;1272;23217;-81
2023/06/01 11:54:54;;;;;;;;;;;;;;;;;;137622;1272;22200;-79
2023/06/01 11:57:58;;;;;;;;;;;;;;;;;;137584;1272;22266;-81
2023/06/01 12:01:00;;;;;;;;;;;;;;;;;;137605;1272;22334;-78
2023/06/01 12:04:05;;;;;;;;;;;;;;;;;;137617;1272;22395;-83
2023/06/01 12:07:07;;;;;;;;;;;;;;;;;;137553;1272;22353;-83
2023/06/01 12:10:10;;;;;;;;;;;;;;;;;;137565;1272;22799;-82
2023/06/01 12:13:13;;;;;;;;;;;;;;;;;;137496;1272;23009;-83
2023/06/01 12:16:17;;;;;;;;;;;;;;;;;;137534;1272;22260;-83
2023/06/01 12:19:20;;;;;;;;;;;;;;;;;;137585;1272;22384;-82
2023/06/01 12:22:23;;;;;;;;;;;;;;;;;;137601;1272;22316;-82
2023/06/01 12:25:25;;;;;;;;;;;;;;;;;;137573;1272;22319;-82
2023/06/01 12:28:29;;;;;;;;;;;;;;;;;;137555;1272;22520;-83
2023/06/01 12:31:31;;;;;;;;;;;;;;;;;;137566;1272;22346;-82
2023/06/01 12:34:34;;;;;;;;;;;;;;;;;;137572;1272;22640;-82
2023/06/01 12:37:37;;;;;;;;;;;;;;;;;;137599;1272;22913;-82
2023/06/01 12:40:39;;;;;;;;;;;;;;;;;;137584;1262;22167;-81
2023/06/01 12:43:42;;;;;;;;;;;;;;;;;;137606;1272;22461;-82
2023/06/01 12:46:45;;;;;;;;;;;;;;;;;;137580;1272;22242;-81
2023/06/01 12:49:47;;;;;;;;;;;;;;;;;;137617;1272;22196;-83
2023/06/01 12:52:50;;;;;;;;;;;;;;;;;;137610;1272;22425;-83
2023/06/01 12:55:52;;;;;;;;;;;;;;;;;;137607;1272;22286;-81
2023/06/01 12:58:55;;;;;;;;;;;;;;;;;;137615;1272;22916;-83
2023/06/01 13:01:58;;;;;;;;;;;;;;;;;;137519;1261;22371;-83
2023/06/01 13:05:01;;;;;;;;;;;;;;;;;;137657;1272;22818;-82
2023/06/01 13:08:03;;;;;;;;;;;;;;;;;;137632;1272;22109;-82
2023/06/01 13:11:06;;;;;;;;;;;;;;;;;;137658;1272;22318;-81
2023/06/01 13:14:08;;;;;;;;;;;;;;;;;;137616;1268;22181;-83
2023/06/01 13:17:11;;;;;;;;;;;;;;;;;;137613;1272;22285;-84
2023/06/01 13:20:16;;;;;;;;;;;;;;;;;;137611;1272;22410;-84
2023/06/01 13:23:19;;;;;;;;;;;;;;;;;;137646;1272;22379;-84
2023/06/01 13:26:22;;;;;;;;;;;;;;;;;;137623;1268;22205;-83
2023/06/01 13:29:25;;;;;;;;;;;;;;;;;;137611;1272;22240;-83
2023/06/01 13:32:28;;;;;;;;;;;;;;;;;;137622;1272;22670;-81
2023/06/01 13:35:30;;;;;;;;;;;;;;;;;;137647;1272;22323;-81
2023/06/01 13:38:33;;;;;;;;;;;;;;;;;;137605;1272;22216;-78
2023/06/01 13:41:36;;;;;;;;;;;;;;;;;;137532;1272;22275;-82
2023/06/01 13:44:38;;;;;;;;;;;;;;;;;;137639;1254;22369;-82
2023/06/01 13:47:41;;;;;;;;;;;;;;;;;;137744;1274;22275;-84
2023/06/01 13:50:44;;;;;;;;;;;;;;;;;;137682;1274;22438;-82
2023/06/01 13:53:46;;;;;;;;;;;;;;;;;;137692;1274;22359;-81
2023/06/01 13:56:48;;;;;;;;;;;;;;;;;;137740;1274;22245;-83
2023/06/01 13:59:51;;;;;;;;;;;;;;;;;;137635;1273;22175;-82
2023/06/01 14:02:54;;;;;;;;;;;;;;;;;;137598;1274;22305;-80
2023/06/01 14:05:56;;;;;;;;;;;;;;;;;;137545;1274;22267;-85
2023/06/01 14:08:59;;;;;;;;;;;;;;;;;;137596;1274;22391;-83
2023/06/01 14:12:01;;;;;;;;;;;;;;;;;;137582;1273;22169;-83
2023/06/01 14:15:04;;;;;;;;;;;;;;;;;;137614;1274;22658;-81
2023/06/01 14:18:06;;;;;;;;;;;;;;;;;;137632;1273;22268;-83
2023/06/01 14:21:09;;;;;;;;;;;;;;;;;;137632;1273;22356;-82
2023/06/01 14:24:11;;;;;;;;;;;;;;;;;;137632;1274;22245;-82
2023/06/01 14:27:15;;;;;;;;;;;;;;;;;;137558;1274;22399;-80
2023/06/01 14:30:17;;;;;;;;;;;;;;;;;;137556;1273;22284;-80
2023/06/01 14:33:20;;;;;;;;;;;;;;;;;;137553;1273;22278;-80
2023/06/01 14:36:24;;;;;;;;;;;;;;;;;;137580;1273;22289;-80
2023/06/01 14:39:28;;;;;;;;;;;;;;;;;;137597;1273;22283;-81
2023/06/01 14:42:30;;;;;;;;;;;;;;;;;;137581;1273;22252;-80
2023/06/01 14:45:33;;;;;;;;;;;;;;;;;;137521;1273;22472;-82
2023/06/01 14:48:35;;;;;;;;;;;;;;;;;;137619;1273;22203;-79
2023/06/01 14:51:38;;;;;;;;;;;;;;;;;;137572;1273;22413;-80
2023/06/01 14:54:40;;;;;;;;;;;;;;;;;;137526;1273;22277;-81
2023/06/01 14:57:43;;;;;;;;;;;;;;;;;;137552;1273;22256;-81
2023/06/01 15:00:45;;;;;;;;;;;;;;;;;;137536;1273;22322;-81
2023/06/01 15:03:48;;;;;;;;;;;;;;;;;;137550;1273;22243;-80
2023/06/01 15:06:51;;;;;;;;;;;;;;;;;;137511;1273;22236;-80
2023/06/01 15:09:53;;;;;;;;;;;;;;;;;;137520;1273;22309;-81
2023/06/01 15:12:56;;;;;;;;;;;;;;;;;;137465;1273;22293;-81
2023/06/01 15:15:58;;;;;;;;;;;;;;;;;;137590;1273;22201;-82
2023/06/01 15:19:01;;;;;;;;;;;;;;;;;;137620;1273;22717;-81
2023/06/01 15:22:04;;;;;;;;;;;;;;;;;;137587;1273;22748;-81
2023/06/01 15:25:06;;;;;;;;;;;;;;;;;;137606;1273;22317;-81
2023/06/01 15:28:09;;;;;;;;;;;;;;;;;;137581;1273;22751;-81
2023/06/01 15:31:12;;;;;;;;;;;;;;;;;;137564;1273;22166;-80
2023/06/01 15:34:14;;;;;;;;;;;;;;;;;;137556;1273;22183;-81
2023/06/01 15:37:17;;;;;;;;;;;;;;;;;;137505;1273;22944;-81
2023/06/01 15:40:20;;;;;;;;;;;;;;;;;;137544;1273;22342;-82
2023/06/01 15:43:22;;;;;;;;;;;;;;;;;;137561;1273;22860;-82
2023/06/01 15:46:25;;;;;;;;;;;;;;;;;;137564;1273;22261;-82
2023/06/01 15:49:27;;;;;;;;;;;;;;;;;;137549;1273;22765;-81
2023/06/01 15:52:30;;;;;;;;;;;;;;;;;;137571;1269;22861;-81
2023/06/01 15:55:32;;;;;;;;;;;;;;;;;;137582;1273;22337;-81
2023/06/01 15:58:35;;;;;;;;;;;;;;;;;;137579;1273;22278;-81
2023/06/01 16:01:37;;;;;;;;;;;;;;;;;;137541;1273;22268;-82
2023/06/01 16:04:39;;;;;;;;;;;;;;;;;;137551;1273;22624;-82
2023/06/01 16:07:42;;;;;;;;;;;;;;;;;;137576;1273;22215;-81
2023/06/01 16:10:44;;;;;;;;;;;;;;;;;;137555;1273;22179;-81
2023/06/01 16:13:47;;;;;;;;;;;;;;;;;;137534;1273;22801;-82
2023/06/01 16:16:50;;;;;;;;;;;;;;;;;;137482;1273;22343;-81
2023/06/01 16:19:52;;;;;;;;;;;;;;;;;;137453;1273;22833;-81
2023/06/01 16:22:55;;;;;;;;;;;;;;;;;;137494;1273;22308;-81
2023/06/01 16:25:57;;;;;;;;;;;;;;;;;;137516;1273;22994;-81
2023/06/01 16:29:00;;;;;;;;;;;;;;;;;;137561;1273;22248;-80
2023/06/01 16:32:02;;;;;;;;;;;;;;;;;;137563;1273;22314;-81
2023/06/01 16:35:05;;;;;;;;;;;;;;;;;;137530;1273;22250;-81
2023/06/01 16:38:07;;;;;;;;;;;;;;;;;;137520;1273;22563;-81
2023/06/01 16:41:09;;;;;;;;;;;;;;;;;;137575;1273;22240;-80
2023/06/01 16:44:12;;;;;;;;;;;;;;;;;;137603;1270;22188;-81
2023/06/01 16:47:15;;;;;;;;;;;;;;;;;;137608;1273;22267;-80
2023/06/01 16:50:17;;;;;;;;;;;;;;;;;;137528;1267;22395;-82
2023/06/01 16:53:20;;;;;;;;;;;;;;;;;;137532;1273;22244;-82
2023/06/01 16:56:22;;;;;;;;;;;;;;;;;;137538;1273;22270;-81
2023/06/01 16:59:26;;;;;;;;;;;;;;;;;;137509;1273;22308;-82
2023/06/01 17:02:30;;;;;;;;;;;;;;;;;;137579;1273;22183;-82
2023/06/01 17:05:33;;;;;;;;;;;;;;;;;;137552;1273;22276;-82
2023/06/01 17:08:36;;;;;;;;;;;;;;;;;;137527;1273;22272;-81
2023/06/01 17:11:38;;;;;;;;;;;;;;;;;;137502;1273;22267;-81
2023/06/01 17:14:41;;;;;;;;;;;;;;;;;;137388;1273;22288;-81
2023/06/01 17:17:44;;;;;;;;;;;;;;;;;;137532;1273;22284;-81
2023/06/01 17:20:46;;;;;;;;;;;;;;;;;;137541;1273;22364;-81
2023/06/01 17:23:49;;;;;;;;;;;;;;;;;;137487;1273;22283;-82
2023/06/01 17:26:51;;;;;;;;;;;;;;;;;;137559;1273;22361;-81
2023/06/01 17:29:54;;;;;;;;;;;;;;;;;;137557;1273;22297;-81
2023/06/01 17:32:56;;;;;;;;;;;;;;;;;;137531;1273;22280;-82
2023/06/01 17:35:59;;;;;;;;;;;;;;;;;;137517;1273;22677;-81
2023/06/01 17:39:02;;;;;;;;;;;;;;;;;;137593;1273;22244;-81
2023/06/01 17:42:04;;;;;;;;;;;;;;;;;;137589;1273;22272;-81
2023/06/01 17:45:09;;;;;;;;;;;;;;;;;;137575;1273;22313;-81
2023/06/01 17:48:11;;;;;;;;;;;;;;;;;;137560;1273;22903;-81
2023/06/01 17:51:14;;;;;;;;;;;;;;;;;;137565;1273;22372;-81
2023/06/01 17:54:16;;;;;;;;;;;;;;;;;;137580;1270;22200;-83
2023/06/01 17:57:19;;;;;;;;;;;;;;;;;;137569;1273;22238;-81
2023/06/01 18:00:21;;;;;;;;;;;;;;;;;;137509;1273;22271;-82
2023/06/01 18:03:24;;;;;;;;;;;;;;;;;;137539;1273;23177;-81
2023/06/01 18:06:26;;;;;;;;;;;;;;;;;;137518;1273;22258;-81
2023/06/01 18:09:29;;;;;;;;;;;;;;;;;;137520;1273;22213;-81
2023/06/01 18:12:34;;;;;;;;;;;;;;;;;;137550;1273;22349;-82
2023/06/01 18:15:36;;;;;;;;;;;;;;;;;;137543;1273;22352;-81
2023/06/01 18:18:39;;;;;;;;;;;;;;;;;;137556;1273;22294;-81
2023/06/01 18:21:41;;;;;;;;;;;;;;;;;;137558;1273;22458;-81
2023/06/01 18:24:47;;;;;;;;;;;;;;;;;;137536;1273;22334;-81
2023/06/01 18:27:52;;;;;;;;;;;;;;;;;;137565;1273;22248;-81
2023/06/01 18:30:54;;;;;;;;;;;;;;;;;;137540;1273;22251;-81
2023/06/01 18:33:57;;;;;;;;;;;;;;;;;;137550;1273;22254;-80
2023/06/01 18:37:00;;;;;;;;;;;;;;;;;;137533;1273;22627;-80
2023/06/01 18:40:04;;;;;;;;;;;;;;;;;;137546;1273;22713;-81
2023/06/01 18:43:10;;;;;;;;;;;;;;;;;;137511;1273;22273;-80
2023/06/01 18:46:13;;;;;;;;;;;;;;;;;;137574;1273;22733;-81
2023/06/01 18:49:15;;;;;;;;;;;;;;;;;;137518;1273;22253;-80
2023/06/01 18:52:18;;;;;;;;;;;;;;;;;;137517;1273;22437;-80
2023/06/01 18:55:20;;;;;;;;;;;;;;;;;;137542;1273;22296;-81
2023/06/01 18:58:23;;;;;;;;;;;;;;;;;;137463;1273;22305;-81
2023/06/01 19:01:25;;;;;;;;;;;;;;;;;;137527;1273;22229;-80
2023/06/01 19:04:28;;;;;;;;;;;;;;;;;;137493;1273;22811;-80
2023/06/01 19:07:30;;;;;;;;;;;;;;;;;;137505;1273;22251;-80
2023/06/01 19:10:33;;;;;;;;;;;;;;;;;;137545;1273;22367;-80
2023/06/01 19:13:35;;;;;;;;;;;;;;;;;;137547;1273;22343;-80
2023/06/01 19:16:39;;;;;;;;;;;;;;;;;;137573;1273;22170;-80
2023/06/01 19:19:41;;;;;;;;;;;;;;;;;;137582;1273;22201;-81
2023/06/01 19:22:44;;;;;;;;;;;;;;;;;;137532;1273;22339;-81
2023/06/01 19:25:46;;;;;;;;;;;;;;;;;;137576;1273;22220;-81
2023/06/01 19:28:49;;;;;;;;;;;;;;;;;;137628;1273;22276;-80
2023/06/01 19:31:51;;;;;;;;;;;;;;;;;;137648;1273;22287;-80
2023/06/01 19:34:55;;;;;;;;;;;;;;;;;;137677;1273;22849;-80
2023/06/01 19:37:57;;;;;;;;;;;;;;;;;;137750;1273;22274;-80
2023/06/01 19:41:00;;;;;;;;;;;;;;;;;;137800;1269;22379;-79
2023/06/01 19:44:02;;;;;;;;;;;;;;;;;;137790;1273;22229;-79
2023/06/01 19:47:05;;;;;;;;;;;;;;;;;;137782;1273;22164;-80
2023/06/01 19:50:07;;;;;;;;;;;;;;;;;;137744;1273;22255;-79
2023/06/01 19:53:10;;;;;;;;;;;;;;;;;;137766;1273;22369;-79
2023/06/01 19:56:12;;;;;;;;;;;;;;;;;;137642;1273;22297;-80
2023/06/01 19:59:17;;;;;;;;;;;;;;;;;;137621;1273;22265;-80
2023/06/01 20:02:20;;;;;;;;;;;;;;;;;;137584;1273;22276;-81
2023/06/01 20:05:22;;;;;;;;;;;;;;;;;;137554;1273;22710;-80
2023/06/01 20:08:24;;;;;;;;;;;;;;;;;;137537;1273;22273;-80
2023/06/01 20:11:27;;;;;;;;;;;;;;;;;;137456;1273;22318;-80
2023/06/01 20:14:29;;;;;;;;;;;;;;;;;;137502;1273;22141;-80
2023/06/01 20:17:32;;;;;;;;;;;;;;;;;;137505;1273;22390;-80
2023/06/01 20:20:34;;;;;;;;;;;;;;;;;;137469;1273;22399;-79
2023/06/01 20:23:37;;;;;;;;;;;;;;;;;;137482;1273;22312;-80
2023/06/01 20:26:39;;;;;;;;;;;;;;;;;;137483;1262;22200;-79